sensor_id;sensor_type;location;lat;lon;timestamp;P1;durP1;ratioP1;P2;durP2;ratioP2
17818;SDS011;9034;50.284;19.310;2023-03-01T00:00:17;142.35;;;62.35;;
17818;SDS011;9034;50.284;19.310;2023-03-01T00:01:21;148.30;;;63.53;;
17818;SDS011;9034;50.284;19.310;2023-03-01T00:02:24;131.93;;;60.22;;
17818;SDS011;9034;50.284;19.310;2023-03-01T00:03:27;144.73;;;62.53;;
17818;SDS011;9034;50.284;19.310;2023-03-01T00:04:29;143.93;;;63.22;;
17818;SDS011;9034;50.284;19.310;2023-03-01T00:05:32;133.75;;;58.65;;
17818;SDS011;9034;50.284;19.310;2023-03-01T00:06:34;156.40;;;64.82;;
17818;SDS011;9034;50.284;19.310;2023-03-01T00:07:37;144.40;;;63.58;;
17818;SDS011;9034;50.284;19.310;2023-03-01T00:08:39;149.48;;;57.65;;
17818;SDS011;9034;50.284;19.310;2023-03-01T00:09:43;133.02;;;54.15;;
17818;SDS011;9034;50.284;19.310;2023-03-01T00:10:47;118.28;;;52.03;;
17818;SDS011;9034;50.284;19.310;2023-03-01T00:11:50;112.97;;;49.63;;
17818;SDS011;9034;50.284;19.310;2023-03-01T00:12:52;108.38;;;48.92;;
17818;SDS011;9034;50.284;19.310;2023-03-01T00:13:55;113.45;;;48.58;;
17818;SDS011;9034;50.284;19.310;2023-03-01T00:14:58;138.07;;;57.80;;
17818;SDS011;9034;50.284;19.310;2023-03-01T00:16:01;140.25;;;61.42;;
17818;SDS011;9034;50.284;19.310;2023-03-01T00:17:04;133.02;;;53.22;;
17818;SDS011;9034;50.284;19.310;2023-03-01T00:18:07;123.63;;;52.42;;
17818;SDS011;9034;50.284;19.310;2023-03-01T00:19:11;126.20;;;51.47;;
17818;SDS011;9034;50.284;19.310;2023-03-01T00:20:15;124.90;;;53.35;;
17818;SDS011;9034;50.284;19.310;2023-03-01T00:21:18;108.47;;;46.15;;
17818;SDS011;9034;50.284;19.310;2023-03-01T00:22:22;97.40;;;41.55;;
17818;SDS011;9034;50.284;19.310;2023-03-01T00:23:24;100.07;;;42.15;;
17818;SDS011;9034;50.284;19.310;2023-03-01T00:24:27;113.03;;;49.22;;
17818;SDS011;9034;50.284;19.310;2023-03-01T00:25:30;116.30;;;50.35;;
17818;SDS011;9034;50.284;19.310;2023-03-01T00:26:33;114.70;;;47.88;;
17818;SDS011;9034;50.284;19.310;2023-03-01T00:27:35;126.55;;;54.75;;
17818;SDS011;9034;50.284;19.310;2023-03-01T00:28:38;121.57;;;51.13;;
17818;SDS011;9034;50.284;19.310;2023-03-01T00:29:41;130.18;;;53.65;;
17818;SDS011;9034;50.284;19.310;2023-03-01T00:30:44;127.03;;;56.55;;
17818;SDS011;9034;50.284;19.310;2023-03-01T00:31:46;123.45;;;54.17;;
17818;SDS011;9034;50.284;19.310;2023-03-01T00:32:49;111.72;;;49.75;;
17818;SDS011;9034;50.284;19.310;2023-03-01T00:33:52;122.40;;;49.65;;
17818;SDS011;9034;50.284;19.310;2023-03-01T00:34:58;116.07;;;46.90;;
17818;SDS011;9034;50.284;19.310;2023-03-01T00:36:00;108.68;;;47.22;;
17818;SDS011;9034;50.284;19.310;2023-03-01T00:37:03;97.15;;;42.83;;
17818;SDS011;9034;50.284;19.310;2023-03-01T00:38:06;103.47;;;47.28;;
17818;SDS011;9034;50.284;19.310;2023-03-01T00:39:11;107.07;;;48.17;;
17818;SDS011;9034;50.284;19.310;2023-03-01T00:40:14;116.75;;;49.08;;
17818;SDS011;9034;50.284;19.310;2023-03-01T00:41:19;115.40;;;47.28;;
17818;SDS011;9034;50.284;19.310;2023-03-01T00:42:21;113.72;;;49.75;;
17818;SDS011;9034;50.284;19.310;2023-03-01T00:43:24;106.15;;;49.53;;
17818;SDS011;9034;50.284;19.310;2023-03-01T00:44:26;113.15;;;49.25;;
17818;SDS011;9034;50.284;19.310;2023-03-01T00:45:29;113.20;;;50.65;;
17818;SDS011;9034;50.284;19.310;2023-03-01T00:46:32;112.00;;;49.85;;
17818;SDS011;9034;50.284;19.310;2023-03-01T00:47:36;112.53;;;49.72;;
17818;SDS011;9034;50.284;19.310;2023-03-01T00:48:38;103.75;;;48.20;;
17818;SDS011;9034;50.284;19.310;2023-03-01T00:49:41;106.18;;;47.30;;
17818;SDS011;9034;50.284;19.310;2023-03-01T00:50:43;103.63;;;46.92;;
17818;SDS011;9034;50.284;19.310;2023-03-01T00:51:46;108.20;;;47.17;;
17818;SDS011;9034;50.284;19.310;2023-03-01T00:52:51;109.38;;;46.60;;
17818;SDS011;9034;50.284;19.310;2023-03-01T00:53:56;96.00;;;45.38;;
17818;SDS011;9034;50.284;19.310;2023-03-01T00:54:59;116.10;;;48.53;;
17818;SDS011;9034;50.284;19.310;2023-03-01T00:56:01;112.97;;;46.28;;
17818;SDS011;9034;50.284;19.310;2023-03-01T00:57:05;102.70;;;45.95;;
17818;SDS011;9034;50.284;19.310;2023-03-01T00:58:08;114.25;;;48.58;;
17818;SDS011;9034;50.284;19.310;2023-03-01T00:59:10;108.72;;;46.53;;
17818;SDS011;9034;50.284;19.310;2023-03-01T01:00:13;101.05;;;45.65;;
17818;SDS011;9034;50.284;19.310;2023-03-01T01:01:16;96.68;;;44.63;;
17818;SDS011;9034;50.284;19.310;2023-03-01T01:02:21;92.60;;;44.25;;
17818;SDS011;9034;50.284;19.310;2023-03-01T01:03:23;95.30;;;43.60;;
17818;SDS011;9034;50.284;19.310;2023-03-01T01:04:26;92.18;;;43.28;;
17818;SDS011;9034;50.284;19.310;2023-03-01T01:05:28;102.47;;;43.42;;
17818;SDS011;9034;50.284;19.310;2023-03-01T01:06:32;96.80;;;43.95;;
17818;SDS011;9034;50.284;19.310;2023-03-01T01:07:34;96.32;;;44.53;;
17818;SDS011;9034;50.284;19.310;2023-03-01T01:08:39;90.72;;;43.45;;
17818;SDS011;9034;50.284;19.310;2023-03-01T01:09:40;98.88;;;42.55;;
17818;SDS011;9034;50.284;19.310;2023-03-01T01:10:43;101.53;;;45.25;;
17818;SDS011;9034;50.284;19.310;2023-03-01T01:11:47;107.88;;;44.53;;
17818;SDS011;9034;50.284;19.310;2023-03-01T01:12:52;97.25;;;43.97;;
17818;SDS011;9034;50.284;19.310;2023-03-01T01:13:54;93.43;;;42.28;;
17818;SDS011;9034;50.284;19.310;2023-03-01T01:14:58;98.40;;;41.40;;
17818;SDS011;9034;50.284;19.310;2023-03-01T01:16:00;103.07;;;43.97;;
17818;SDS011;9034;50.284;19.310;2023-03-01T01:17:03;104.22;;;43.25;;
17818;SDS011;9034;50.284;19.310;2023-03-01T01:18:06;103.72;;;42.25;;
17818;SDS011;9034;50.284;19.310;2023-03-01T01:19:09;99.32;;;44.28;;
17818;SDS011;9034;50.284;19.310;2023-03-01T01:20:12;102.60;;;43.40;;
17818;SDS011;9034;50.284;19.310;2023-03-01T01:21:14;102.85;;;44.80;;
17818;SDS011;9034;50.284;19.310;2023-03-01T01:22:19;93.57;;;43.10;;
17818;SDS011;9034;50.284;19.310;2023-03-01T01:23:21;109.68;;;44.85;;
17818;SDS011;9034;50.284;19.310;2023-03-01T01:24:24;97.65;;;43.60;;
17818;SDS011;9034;50.284;19.310;2023-03-01T01:25:26;100.60;;;44.50;;
17818;SDS011;9034;50.284;19.310;2023-03-01T01:26:29;102.18;;;44.20;;
17818;SDS011;9034;50.284;19.310;2023-03-01T01:27:33;108.35;;;43.95;;
17818;SDS011;9034;50.284;19.310;2023-03-01T01:28:37;99.20;;;42.78;;
17818;SDS011;9034;50.284;19.310;2023-03-01T01:29:40;98.72;;;43.88;;
17818;SDS011;9034;50.284;19.310;2023-03-01T01:30:43;107.63;;;47.28;;
17818;SDS011;9034;50.284;19.310;2023-03-01T01:31:46;108.13;;;44.95;;
17818;SDS011;9034;50.284;19.310;2023-03-01T01:32:48;106.60;;;46.58;;
17818;SDS011;9034;50.284;19.310;2023-03-01T01:33:51;106.47;;;45.38;;
17818;SDS011;9034;50.284;19.310;2023-03-01T01:34:53;107.47;;;45.60;;
17818;SDS011;9034;50.284;19.310;2023-03-01T01:35:56;109.95;;;45.80;;
17818;SDS011;9034;50.284;19.310;2023-03-01T01:36:58;110.95;;;46.15;;
17818;SDS011;9034;50.284;19.310;2023-03-01T01:38:04;100.43;;;45.00;;
17818;SDS011;9034;50.284;19.310;2023-03-01T01:39:06;103.88;;;46.42;;
17818;SDS011;9034;50.284;19.310;2023-03-01T01:40:13;106.38;;;47.17;;
17818;SDS011;9034;50.284;19.310;2023-03-01T01:41:15;112.57;;;47.15;;
17818;SDS011;9034;50.284;19.310;2023-03-01T01:42:18;112.72;;;48.67;;
17818;SDS011;9034;50.284;19.310;2023-03-01T01:43:21;97.43;;;45.72;;
17818;SDS011;9034;50.284;19.310;2023-03-01T01:44:28;113.22;;;48.40;;
17818;SDS011;9034;50.284;19.310;2023-03-01T01:45:32;109.93;;;48.53;;
17818;SDS011;9034;50.284;19.310;2023-03-01T01:46:35;107.28;;;46.90;;
17818;SDS011;9034;50.284;19.310;2023-03-01T01:47:38;108.75;;;43.75;;
17818;SDS011;9034;50.284;19.310;2023-03-01T01:48:41;110.68;;;47.05;;
17818;SDS011;9034;50.284;19.310;2023-03-01T01:49:45;104.05;;;42.85;;
17818;SDS011;9034;50.284;19.310;2023-03-01T01:50:53;102.07;;;44.75;;
17818;SDS011;9034;50.284;19.310;2023-03-01T01:52:03;100.70;;;44.08;;
17818;SDS011;9034;50.284;19.310;2023-03-01T01:53:10;112.80;;;47.78;;
17818;SDS011;9034;50.284;19.310;2023-03-01T01:54:14;96.65;;;43.33;;
17818;SDS011;9034;50.284;19.310;2023-03-01T01:55:19;110.90;;;46.78;;
17818;SDS011;9034;50.284;19.310;2023-03-01T01:56:24;117.03;;;46.78;;
17818;SDS011;9034;50.284;19.310;2023-03-01T01:57:30;119.32;;;47.55;;
17818;SDS011;9034;50.284;19.310;2023-03-01T01:58:35;123.93;;;46.92;;
17818;SDS011;9034;50.284;19.310;2023-03-01T01:59:39;107.95;;;45.45;;
17818;SDS011;9034;50.284;19.310;2023-03-01T02:00:43;115.63;;;46.78;;
17818;SDS011;9034;50.284;19.310;2023-03-01T02:01:46;107.10;;;47.67;;
17818;SDS011;9034;50.284;19.310;2023-03-01T02:02:49;109.30;;;47.58;;
17818;SDS011;9034;50.284;19.310;2023-03-01T02:03:56;105.32;;;44.83;;
17818;SDS011;9034;50.284;19.310;2023-03-01T02:05:01;118.18;;;48.72;;
17818;SDS011;9034;50.284;19.310;2023-03-01T02:06:06;117.07;;;49.05;;
17818;SDS011;9034;50.284;19.310;2023-03-01T02:07:14;113.72;;;49.45;;
17818;SDS011;9034;50.284;19.310;2023-03-01T02:08:17;110.25;;;47.75;;
17818;SDS011;9034;50.284;19.310;2023-03-01T02:09:21;133.75;;;53.88;;
17818;SDS011;9034;50.284;19.310;2023-03-01T02:10:24;149.02;;;58.17;;
17818;SDS011;9034;50.284;19.310;2023-03-01T02:11:28;127.75;;;53.92;;
17818;SDS011;9034;50.284;19.310;2023-03-01T02:12:32;125.05;;;50.70;;
17818;SDS011;9034;50.284;19.310;2023-03-01T02:13:35;135.27;;;57.05;;
17818;SDS011;9034;50.284;19.310;2023-03-01T02:14:40;136.15;;;55.53;;
17818;SDS011;9034;50.284;19.310;2023-03-01T02:15:42;134.05;;;54.28;;
17818;SDS011;9034;50.284;19.310;2023-03-01T02:16:46;129.02;;;53.10;;
17818;SDS011;9034;50.284;19.310;2023-03-01T02:17:48;126.95;;;53.67;;
17818;SDS011;9034;50.284;19.310;2023-03-01T02:18:51;122.07;;;54.75;;
17818;SDS011;9034;50.284;19.310;2023-03-01T02:19:57;120.75;;;51.03;;
17818;SDS011;9034;50.284;19.310;2023-03-01T02:21:12;117.90;;;52.13;;
17818;SDS011;9034;50.284;19.310;2023-03-01T02:22:20;118.53;;;52.03;;
17818;SDS011;9034;50.284;19.310;2023-03-01T02:23:26;122.70;;;53.75;;
17818;SDS011;9034;50.284;19.310;2023-03-01T02:24:30;122.70;;;53.08;;
17818;SDS011;9034;50.284;19.310;2023-03-01T02:25:37;113.22;;;49.05;;
17818;SDS011;9034;50.284;19.310;2023-03-01T02:26:42;113.72;;;48.20;;
17818;SDS011;9034;50.284;19.310;2023-03-01T02:27:49;109.82;;;49.55;;
17818;SDS011;9034;50.284;19.310;2023-03-01T02:28:57;126.28;;;51.55;;
17818;SDS011;9034;50.284;19.310;2023-03-01T02:30:00;127.10;;;53.97;;
17818;SDS011;9034;50.284;19.310;2023-03-01T02:31:03;120.53;;;50.65;;
17818;SDS011;9034;50.284;19.310;2023-03-01T02:32:25;129.63;;;50.35;;
17818;SDS011;9034;50.284;19.310;2023-03-01T02:33:29;114.13;;;48.55;;
17818;SDS011;9034;50.284;19.310;2023-03-01T02:34:34;120.30;;;52.25;;
17818;SDS011;9034;50.284;19.310;2023-03-01T02:35:38;114.00;;;50.33;;
17818;SDS011;9034;50.284;19.310;2023-03-01T02:36:41;127.38;;;54.00;;
17818;SDS011;9034;50.284;19.310;2023-03-01T02:37:47;121.38;;;50.42;;
17818;SDS011;9034;50.284;19.310;2023-03-01T02:38:50;120.45;;;51.50;;
17818;SDS011;9034;50.284;19.310;2023-03-01T02:39:56;107.50;;;49.67;;
17818;SDS011;9034;50.284;19.310;2023-03-01T02:40:59;105.28;;;47.78;;
17818;SDS011;9034;50.284;19.310;2023-03-01T02:42:05;117.97;;;51.15;;
17818;SDS011;9034;50.284;19.310;2023-03-01T02:43:07;124.35;;;52.53;;
17818;SDS011;9034;50.284;19.310;2023-03-01T02:44:12;129.90;;;51.70;;
17818;SDS011;9034;50.284;19.310;2023-03-01T02:45:15;136.32;;;57.60;;
17818;SDS011;9034;50.284;19.310;2023-03-01T02:46:19;124.50;;;54.00;;
17818;SDS011;9034;50.284;19.310;2023-03-01T02:47:22;111.15;;;49.05;;
17818;SDS011;9034;50.284;19.310;2023-03-01T02:48:25;126.95;;;53.70;;
17818;SDS011;9034;50.284;19.310;2023-03-01T02:49:28;126.78;;;52.45;;
17818;SDS011;9034;50.284;19.310;2023-03-01T02:50:44;127.70;;;53.05;;
17818;SDS011;9034;50.284;19.310;2023-03-01T02:52:07;131.65;;;53.55;;
17818;SDS011;9034;50.284;19.310;2023-03-01T02:53:21;126.32;;;52.53;;
17818;SDS011;9034;50.284;19.310;2023-03-01T02:54:27;121.97;;;51.25;;
17818;SDS011;9034;50.284;19.310;2023-03-01T02:55:33;137.82;;;55.40;;
17818;SDS011;9034;50.284;19.310;2023-03-01T02:56:35;136.40;;;55.70;;
17818;SDS011;9034;50.284;19.310;2023-03-01T02:57:39;140.82;;;56.55;;
17818;SDS011;9034;50.284;19.310;2023-03-01T02:58:43;174.13;;;69.13;;
17818;SDS011;9034;50.284;19.310;2023-03-01T02:59:48;144.50;;;59.28;;
17818;SDS011;9034;50.284;19.310;2023-03-01T03:00:53;138.50;;;58.08;;
17818;SDS011;9034;50.284;19.310;2023-03-01T03:01:55;131.63;;;54.80;;
17818;SDS011;9034;50.284;19.310;2023-03-01T03:02:58;136.52;;;56.17;;
17818;SDS011;9034;50.284;19.310;2023-03-01T03:04:00;146.50;;;61.70;;
17818;SDS011;9034;50.284;19.310;2023-03-01T03:05:04;166.25;;;62.28;;
17818;SDS011;9034;50.284;19.310;2023-03-01T03:06:08;140.88;;;57.88;;
17818;SDS011;9034;50.284;19.310;2023-03-01T03:07:11;139.30;;;57.60;;
17818;SDS011;9034;50.284;19.310;2023-03-01T03:08:13;147.75;;;58.60;;
17818;SDS011;9034;50.284;19.310;2023-03-01T03:09:25;147.95;;;59.35;;
17818;SDS011;9034;50.284;19.310;2023-03-01T03:10:28;151.85;;;60.88;;
17818;SDS011;9034;50.284;19.310;2023-03-01T03:11:32;148.30;;;60.55;;
17818;SDS011;9034;50.284;19.310;2023-03-01T03:12:34;138.93;;;59.88;;
17818;SDS011;9034;50.284;19.310;2023-03-01T03:13:37;149.57;;;57.58;;
17818;SDS011;9034;50.284;19.310;2023-03-01T03:14:52;141.43;;;59.40;;
17818;SDS011;9034;50.284;19.310;2023-03-01T03:16:13;149.45;;;58.83;;
17818;SDS011;9034;50.284;19.310;2023-03-01T03:17:15;136.93;;;58.30;;
17818;SDS011;9034;50.284;19.310;2023-03-01T03:18:18;132.85;;;57.88;;
17818;SDS011;9034;50.284;19.310;2023-03-01T03:19:20;140.80;;;56.95;;
17818;SDS011;9034;50.284;19.310;2023-03-01T03:20:23;142.73;;;59.72;;
17818;SDS011;9034;50.284;19.310;2023-03-01T03:21:26;162.27;;;61.90;;
17818;SDS011;9034;50.284;19.310;2023-03-01T03:22:29;143.95;;;57.13;;
17818;SDS011;9034;50.284;19.310;2023-03-01T03:23:31;145.57;;;56.78;;
17818;SDS011;9034;50.284;19.310;2023-03-01T03:24:34;154.00;;;59.00;;
17818;SDS011;9034;50.284;19.310;2023-03-01T03:25:39;143.90;;;56.65;;
17818;SDS011;9034;50.284;19.310;2023-03-01T03:26:42;141.65;;;60.30;;
17818;SDS011;9034;50.284;19.310;2023-03-01T03:27:44;144.60;;;61.40;;
17818;SDS011;9034;50.284;19.310;2023-03-01T03:28:47;140.27;;;58.65;;
17818;SDS011;9034;50.284;19.310;2023-03-01T03:29:49;128.45;;;57.17;;
17818;SDS011;9034;50.284;19.310;2023-03-01T03:30:54;132.43;;;56.92;;
17818;SDS011;9034;50.284;19.310;2023-03-01T03:31:55;123.93;;;52.95;;
17818;SDS011;9034;50.284;19.310;2023-03-01T03:32:59;130.52;;;55.92;;
17818;SDS011;9034;50.284;19.310;2023-03-01T03:34:01;119.70;;;53.38;;
17818;SDS011;9034;50.284;19.310;2023-03-01T03:35:04;124.63;;;51.95;;
17818;SDS011;9034;50.284;19.310;2023-03-01T03:36:14;127.18;;;51.53;;
17818;SDS011;9034;50.284;19.310;2023-03-01T03:37:19;122.88;;;55.20;;
17818;SDS011;9034;50.284;19.310;2023-03-01T03:38:35;126.07;;;51.72;;
17818;SDS011;9034;50.284;19.310;2023-03-01T03:39:38;132.23;;;55.25;;
17818;SDS011;9034;50.284;19.310;2023-03-01T03:40:41;133.18;;;53.17;;
17818;SDS011;9034;50.284;19.310;2023-03-01T03:41:44;126.75;;;51.60;;
17818;SDS011;9034;50.284;19.310;2023-03-01T03:42:46;143.55;;;56.83;;
17818;SDS011;9034;50.284;19.310;2023-03-01T03:43:49;147.27;;;58.80;;
17818;SDS011;9034;50.284;19.310;2023-03-01T03:44:53;120.60;;;53.15;;
17818;SDS011;9034;50.284;19.310;2023-03-01T03:45:55;123.53;;;51.35;;
17818;SDS011;9034;50.284;19.310;2023-03-01T03:46:59;141.95;;;58.40;;
17818;SDS011;9034;50.284;19.310;2023-03-01T03:48:01;128.75;;;53.45;;
17818;SDS011;9034;50.284;19.310;2023-03-01T03:49:05;127.65;;;53.17;;
17818;SDS011;9034;50.284;19.310;2023-03-01T03:50:09;133.43;;;55.13;;
17818;SDS011;9034;50.284;19.310;2023-03-01T03:51:12;133.15;;;54.72;;
17818;SDS011;9034;50.284;19.310;2023-03-01T03:52:15;134.80;;;53.75;;
17818;SDS011;9034;50.284;19.310;2023-03-01T03:53:17;135.45;;;54.95;;
17818;SDS011;9034;50.284;19.310;2023-03-01T03:54:21;139.40;;;52.60;;
17818;SDS011;9034;50.284;19.310;2023-03-01T03:55:23;131.05;;;50.33;;
17818;SDS011;9034;50.284;19.310;2023-03-01T03:56:31;129.20;;;52.53;;
17818;SDS011;9034;50.284;19.310;2023-03-01T03:57:33;128.02;;;52.10;;
17818;SDS011;9034;50.284;19.310;2023-03-01T03:58:37;121.30;;;53.50;;
17818;SDS011;9034;50.284;19.310;2023-03-01T03:59:40;120.65;;;51.63;;
17818;SDS011;9034;50.284;19.310;2023-03-01T04:00:44;121.05;;;51.95;;
17818;SDS011;9034;50.284;19.310;2023-03-01T04:01:48;133.95;;;56.38;;
17818;SDS011;9034;50.284;19.310;2023-03-01T04:02:50;127.43;;;50.95;;
17818;SDS011;9034;50.284;19.310;2023-03-01T04:03:57;121.57;;;51.38;;
17818;SDS011;9034;50.284;19.310;2023-03-01T04:05:06;128.68;;;51.33;;
17818;SDS011;9034;50.284;19.310;2023-03-01T04:06:09;112.93;;;47.60;;
17818;SDS011;9034;50.284;19.310;2023-03-01T04:07:11;107.18;;;47.25;;
17818;SDS011;9034;50.284;19.310;2023-03-01T04:08:14;117.95;;;50.38;;
17818;SDS011;9034;50.284;19.310;2023-03-01T04:09:16;116.00;;;49.63;;
17818;SDS011;9034;50.284;19.310;2023-03-01T04:10:18;130.77;;;49.33;;
17818;SDS011;9034;50.284;19.310;2023-03-01T04:11:20;112.40;;;50.05;;
17818;SDS011;9034;50.284;19.310;2023-03-01T04:12:29;122.47;;;49.08;;
17818;SDS011;9034;50.284;19.310;2023-03-01T04:13:31;119.30;;;52.25;;
17818;SDS011;9034;50.284;19.310;2023-03-01T04:14:34;131.77;;;50.78;;
17818;SDS011;9034;50.284;19.310;2023-03-01T04:15:36;121.30;;;50.58;;
17818;SDS011;9034;50.284;19.310;2023-03-01T04:16:40;116.18;;;50.90;;
17818;SDS011;9034;50.284;19.310;2023-03-01T04:17:43;116.88;;;49.28;;
17818;SDS011;9034;50.284;19.310;2023-03-01T04:18:47;117.13;;;51.15;;
17818;SDS011;9034;50.284;19.310;2023-03-01T04:19:49;133.18;;;52.00;;
17818;SDS011;9034;50.284;19.310;2023-03-01T04:20:52;129.95;;;53.03;;
17818;SDS011;9034;50.284;19.310;2023-03-01T04:21:56;126.43;;;53.38;;
17818;SDS011;9034;50.284;19.310;2023-03-01T04:22:59;120.70;;;52.47;;
17818;SDS011;9034;50.284;19.310;2023-03-01T04:24:12;117.78;;;48.97;;
17818;SDS011;9034;50.284;19.310;2023-03-01T04:25:14;121.97;;;50.65;;
17818;SDS011;9034;50.284;19.310;2023-03-01T04:26:16;120.57;;;51.05;;
17818;SDS011;9034;50.284;19.310;2023-03-01T04:27:19;119.72;;;50.22;;
17818;SDS011;9034;50.284;19.310;2023-03-01T04:28:21;113.28;;;48.03;;
17818;SDS011;9034;50.284;19.310;2023-03-01T04:29:25;116.30;;;48.22;;
17818;SDS011;9034;50.284;19.310;2023-03-01T04:30:28;117.55;;;48.60;;
17818;SDS011;9034;50.284;19.310;2023-03-01T04:31:30;121.90;;;49.53;;
17818;SDS011;9034;50.284;19.310;2023-03-01T04:32:34;107.82;;;49.13;;
17818;SDS011;9034;50.284;19.310;2023-03-01T04:33:36;114.85;;;48.78;;
17818;SDS011;9034;50.284;19.310;2023-03-01T04:34:38;118.38;;;51.42;;
17818;SDS011;9034;50.284;19.310;2023-03-01T04:35:41;128.02;;;49.55;;
17818;SDS011;9034;50.284;19.310;2023-03-01T04:36:43;114.53;;;48.83;;
17818;SDS011;9034;50.284;19.310;2023-03-01T04:37:46;109.82;;;46.75;;
17818;SDS011;9034;50.284;19.310;2023-03-01T04:38:48;123.50;;;45.78;;
17818;SDS011;9034;50.284;19.310;2023-03-01T04:39:51;120.25;;;47.22;;
17818;SDS011;9034;50.284;19.310;2023-03-01T04:40:53;109.88;;;46.85;;
17818;SDS011;9034;50.284;19.310;2023-03-01T04:41:56;110.28;;;48.33;;
17818;SDS011;9034;50.284;19.310;2023-03-01T04:42:58;104.32;;;46.15;;
17818;SDS011;9034;50.284;19.310;2023-03-01T04:44:01;104.90;;;44.90;;
17818;SDS011;9034;50.284;19.310;2023-03-01T04:45:04;107.20;;;45.75;;
17818;SDS011;9034;50.284;19.310;2023-03-01T04:46:15;111.60;;;46.28;;
17818;SDS011;9034;50.284;19.310;2023-03-01T04:47:19;118.22;;;47.58;;
17818;SDS011;9034;50.284;19.310;2023-03-01T04:48:22;126.35;;;49.08;;
17818;SDS011;9034;50.284;19.310;2023-03-01T04:49:25;128.20;;;46.60;;
17818;SDS011;9034;50.284;19.310;2023-03-01T04:50:26;120.20;;;46.85;;
17818;SDS011;9034;50.284;19.310;2023-03-01T04:51:29;114.32;;;45.83;;
17818;SDS011;9034;50.284;19.310;2023-03-01T04:52:33;129.75;;;46.40;;
17818;SDS011;9034;50.284;19.310;2023-03-01T04:53:36;114.50;;;45.38;;
17818;SDS011;9034;50.284;19.310;2023-03-01T04:54:38;116.88;;;45.30;;
17818;SDS011;9034;50.284;19.310;2023-03-01T04:55:41;107.93;;;47.03;;
17818;SDS011;9034;50.284;19.310;2023-03-01T04:56:43;111.75;;;47.58;;
17818;SDS011;9034;50.284;19.310;2023-03-01T04:57:46;105.85;;;43.88;;
17818;SDS011;9034;50.284;19.310;2023-03-01T04:58:48;99.45;;;44.40;;
17818;SDS011;9034;50.284;19.310;2023-03-01T04:59:52;98.88;;;42.85;;
17818;SDS011;9034;50.284;19.310;2023-03-01T05:00:54;105.63;;;43.55;;
17818;SDS011;9034;50.284;19.310;2023-03-01T05:01:57;93.32;;;41.15;;
17818;SDS011;9034;50.284;19.310;2023-03-01T05:03:01;117.05;;;44.22;;
17818;SDS011;9034;50.284;19.310;2023-03-01T05:04:06;100.82;;;43.80;;
17818;SDS011;9034;50.284;19.310;2023-03-01T05:05:08;115.53;;;46.90;;
17818;SDS011;9034;50.284;19.310;2023-03-01T05:06:11;102.32;;;42.22;;
17818;SDS011;9034;50.284;19.310;2023-03-01T05:07:13;98.25;;;44.42;;
17818;SDS011;9034;50.284;19.310;2023-03-01T05:08:20;103.28;;;41.92;;
17818;SDS011;9034;50.284;19.310;2023-03-01T05:09:23;102.60;;;42.35;;
17818;SDS011;9034;50.284;19.310;2023-03-01T05:10:26;108.53;;;44.35;;
17818;SDS011;9034;50.284;19.310;2023-03-01T05:11:31;100.70;;;43.47;;
17818;SDS011;9034;50.284;19.310;2023-03-01T05:12:37;109.05;;;45.08;;
17818;SDS011;9034;50.284;19.310;2023-03-01T05:13:39;106.53;;;45.45;;
17818;SDS011;9034;50.284;19.310;2023-03-01T05:14:41;111.10;;;46.00;;
17818;SDS011;9034;50.284;19.310;2023-03-01T05:15:44;116.97;;;48.00;;
17818;SDS011;9034;50.284;19.310;2023-03-01T05:16:46;107.80;;;46.10;;
17818;SDS011;9034;50.284;19.310;2023-03-01T05:17:49;113.80;;;47.85;;
17818;SDS011;9034;50.284;19.310;2023-03-01T05:18:50;108.68;;;47.30;;
17818;SDS011;9034;50.284;19.310;2023-03-01T05:19:55;117.50;;;49.58;;
17818;SDS011;9034;50.284;19.310;2023-03-01T05:21:01;112.10;;;48.58;;
17818;SDS011;9034;50.284;19.310;2023-03-01T05:22:05;99.80;;;44.83;;
17818;SDS011;9034;50.284;19.310;2023-03-01T05:23:07;97.85;;;41.13;;
17818;SDS011;9034;50.284;19.310;2023-03-01T05:24:10;120.95;;;44.50;;
17818;SDS011;9034;50.284;19.310;2023-03-01T05:25:13;107.70;;;45.15;;
17818;SDS011;9034;50.284;19.310;2023-03-01T05:26:16;105.35;;;46.42;;
17818;SDS011;9034;50.284;19.310;2023-03-01T05:27:29;99.55;;;42.08;;
17818;SDS011;9034;50.284;19.310;2023-03-01T05:28:31;95.65;;;43.10;;
17818;SDS011;9034;50.284;19.310;2023-03-01T05:29:34;101.15;;;43.58;;
17818;SDS011;9034;50.284;19.310;2023-03-01T05:30:37;102.68;;;42.78;;
17818;SDS011;9034;50.284;19.310;2023-03-01T05:31:41;94.70;;;41.60;;
17818;SDS011;9034;50.284;19.310;2023-03-01T05:32:44;100.10;;;44.55;;
17818;SDS011;9034;50.284;19.310;2023-03-01T05:33:47;100.95;;;42.58;;
17818;SDS011;9034;50.284;19.310;2023-03-01T05:34:49;123.18;;;54.22;;
17818;SDS011;9034;50.284;19.310;2023-03-01T05:35:59;129.63;;;58.28;;
17818;SDS011;9034;50.284;19.310;2023-03-01T05:37:02;92.68;;;42.70;;
17818;SDS011;9034;50.284;19.310;2023-03-01T05:38:04;106.88;;;46.00;;
17818;SDS011;9034;50.284;19.310;2023-03-01T05:39:06;98.72;;;42.92;;
17818;SDS011;9034;50.284;19.310;2023-03-01T05:40:09;107.65;;;46.90;;
17818;SDS011;9034;50.284;19.310;2023-03-01T05:41:16;122.68;;;52.08;;
17818;SDS011;9034;50.284;19.310;2023-03-01T05:42:18;120.30;;;51.25;;
17818;SDS011;9034;50.284;19.310;2023-03-01T05:43:21;117.88;;;46.97;;
17818;SDS011;9034;50.284;19.310;2023-03-01T05:44:23;103.35;;;46.90;;
17818;SDS011;9034;50.284;19.310;2023-03-01T05:45:27;90.32;;;44.28;;
17818;SDS011;9034;50.284;19.310;2023-03-01T05:46:29;91.32;;;41.35;;
17818;SDS011;9034;50.284;19.310;2023-03-01T05:47:32;108.43;;;44.08;;
17818;SDS011;9034;50.284;19.310;2023-03-01T05:48:34;92.32;;;41.42;;
17818;SDS011;9034;50.284;19.310;2023-03-01T05:49:37;126.35;;;47.10;;
17818;SDS011;9034;50.284;19.310;2023-03-01T05:50:40;110.75;;;44.17;;
17818;SDS011;9034;50.284;19.310;2023-03-01T05:51:48;118.63;;;46.03;;
17818;SDS011;9034;50.284;19.310;2023-03-01T05:52:54;135.23;;;47.22;;
17818;SDS011;9034;50.284;19.310;2023-03-01T05:53:59;124.95;;;45.25;;
17818;SDS011;9034;50.284;19.310;2023-03-01T05:55:01;117.20;;;45.92;;
17818;SDS011;9034;50.284;19.310;2023-03-01T05:56:04;114.05;;;45.38;;
17818;SDS011;9034;50.284;19.310;2023-03-01T05:57:07;112.45;;;44.65;;
17818;SDS011;9034;50.284;19.310;2023-03-01T05:58:10;107.57;;;45.70;;
17818;SDS011;9034;50.284;19.310;2023-03-01T05:59:15;106.88;;;43.03;;
17818;SDS011;9034;50.284;19.310;2023-03-01T06:00:18;105.15;;;43.03;;
17818;SDS011;9034;50.284;19.310;2023-03-01T06:01:23;98.28;;;43.20;;
17818;SDS011;9034;50.284;19.310;2023-03-01T06:02:25;117.72;;;46.25;;
17818;SDS011;9034;50.284;19.310;2023-03-01T06:03:28;96.90;;;43.20;;
17818;SDS011;9034;50.284;19.310;2023-03-01T06:04:30;111.10;;;44.78;;
17818;SDS011;9034;50.284;19.310;2023-03-01T06:05:33;108.72;;;45.08;;
17818;SDS011;9034;50.284;19.310;2023-03-01T06:06:36;116.60;;;47.33;;
17818;SDS011;9034;50.284;19.310;2023-03-01T06:07:40;116.75;;;45.63;;
17818;SDS011;9034;50.284;19.310;2023-03-01T06:08:43;110.35;;;46.58;;